Enchantment of the Seas — C6FZ7 — position and weather

sailwx.info

Track history (hours):
 
Tides and Currents Weather Stations Pressure Air Temp Water Temp Dewpoint Dewpoint Depression Visibility Wind Speed Wind Dir Waves Ship Positions

Enchantment of the Seas (Bahamas)

Last reported at 2020-Apr-02 21:29 UTC. Time now 2020-Apr-02 21:39 UTC.
Position N 29°19' W 094°48'.

Type: Passenger vessel. MMSI: 311733000.

Date/timePositionNaut miles runAvg speedWind from/ knotsBaromVisibWave heightAir tempDewpointWater temp
2020-Apr-02 21:29N 29°19' W 094°48'0 0.0
2020-Apr-02 20:59N 29°19' W 094°48'0 0.0
2020-Apr-02 19:26N 29°19' W 094°48'0 0.0
2020-Apr-02 18:59N 29°19' W 094°48'0 0.0
2020-Apr-02 18:26N 29°19' W 094°48'0 0.0
2020-Apr-02 15:23N 29°19' W 094°48'0 0.0
2020-Apr-02 13:29N 29°19' W 094°48'0 0.0
2020-Apr-02 11:59N 29°19' W 094°48'0 0.0
2020-Apr-02 10:59N 29°19' W 094°48'0 0.0
2020-Apr-02 10:29N 29°19' W 094°48'0 0.0
2020-Apr-02 09:29N 29°19' W 094°48'0 0.0
2020-Apr-02 07:59N 29°19' W 094°48'0 0.0
2020-Apr-02 07:29N 29°19' W 094°48'0 0.0
2020-Apr-02 05:26N 29°19' W 094°48'0 0.0
2020-Apr-02 02:26N 29°19' W 094°48'0 0.0
2020-Apr-02 01:56N 29°19' W 094°48'0 0.0
2020-Apr-01 22:59N 29°19' W 094°48'0 0.0
2020-Apr-01 22:29N 29°19' W 094°48'0 0.0
2020-Apr-01 21:26N 29°19' W 094°48'0 0.0
2020-Apr-01 20:59N 29°19' W 094°48'0 0.0
2020-Apr-01 18:26N 29°19' W 094°48'0 0.0
2020-Apr-01 17:56N 29°19' W 094°48'0 0.0
2020-Apr-01 16:59N 29°19' W 094°48'0 0.0
2020-Apr-01 16:29N 29°19' W 094°48'0 0.0
2020-Apr-01 10:29N 29°19' W 094°48'0 0.0
2020-Apr-01 07:59N 29°19' W 094°48'0 0.0
2020-Apr-01 07:26N 29°18' W 094°48'0 0.0
2020-Mar-31 21:56N 29°19' W 094°48'0 0.0
2020-Mar-31 20:59N 29°19' W 094°48'0 0.0
2020-Mar-31 20:29N 29°19' W 094°48'0 0.0
2020-Mar-31 17:59N 29°19' W 094°48'0 0.0
2020-Mar-31 16:26N 29°19' W 094°48'0 0.0
2020-Mar-31 15:59N 29°19' W 094°48'0 0.0
2020-Mar-31 11:26N 29°19' W 094°48'0 0.0
2020-Mar-31 10:59N 29°19' W 094°48'0 0.0
2020-Mar-31 09:59N 29°19' W 094°48'0 0.0
2020-Mar-31 09:29N 29°19' W 094°48'0 0.0
2020-Mar-31 08:29N 29°19' W 094°48'0 0.0
2020-Mar-31 07:29N 29°19' W 094°48'0 0.0
2020-Mar-31 06:29N 29°19' W 094°48'0 0.0
2020-Mar-31 04:59N 29°19' W 094°48'0 0.0
2020-Mar-31 04:29N 29°19' W 094°48'0 0.0
2020-Mar-31 03:26N 29°19' W 094°48'0 0.0
2020-Mar-31 00:59N 29°19' W 094°48'0 0.0
2020-Mar-30 23:26N 29°19' W 094°48'0 0.0
2020-Mar-30 21:29N 29°19' W 094°48'0 0.0
2020-Mar-30 20:56N 29°19' W 094°48'0 0.0
2020-Mar-30 17:30N 29°19' W 094°48'7 6.7
2020-Mar-30 16:31N 29°20' W 094°41'14 6.9
2020-Mar-30 14:27N 29°12' W 094°27'5 5.7
2020-Mar-30 13:38N 29°08' W 094°26'12 7.6
2020-Mar-30 12:00N 29°01' W 094°37'11 7.5
2020-Mar-30 10:30N 28°54' W 094°48'15 7.4
2020-Mar-30 08:30N 28°46' W 095°02'4 7.1
2020-Mar-30 08:00N 28°44' W 095°06'5 2.6
2020-Mar-30 06:00N 28°43' W 095°11'5 8.8
2020-Mar-30 05:29N 28°45' W 095°07'8 8.7
2020-Mar-30 04:30N 28°49' W 094°59'21 8.5
2020-Mar-30 02:00N 29°01' W 094°38'4 7.6
2020-Mar-30 01:31N 29°04' W 094°35'1 0.4
2020-Mar-29 22:29N 29°05' W 094°36'0 0.0
2020-Mar-29 19:14N 29°05' W 094°36'0 0.0
2020-Mar-29 18:35N 29°05' W 094°36'0 0.0
2020-Mar-29 17:59N 29°05' W 094°36'0 0.0
2020-Mar-29 17:29N 29°05' W 094°36'0 0.0
2020-Mar-29 16:23N 29°05' W 094°36'0 0.0
2020-Mar-29 14:26N 29°05' W 094°36'0 0.0
2020-Mar-29 13:26N 29°05' W 094°36'0 0.1
2020-Mar-29 12:59N 29°05' W 094°36'1 2.2
2020-Mar-29 12:30N 29°04' W 094°36'7 6.6
2020-Mar-29 11:30N 28°59' W 094°41'19 7.7
2020-Mar-29 09:00N 28°48' W 094°60'22 4.0
2020-Mar-29 03:30N 29°01' W 094°39'8 8.0
2020-Mar-29 02:30N 29°05' W 094°32'15 6.0
2020-Mar-28 23:59N 29°19' W 094°38'714.6
2020-Mar-28 23:30N 29°21' W 094°46'3 1.1
2020-Mar-28 20:58N 29°19' W 094°48'0 0.0
2020-Mar-28 19:28N 29°19' W 094°48'0 0.0
2020-Mar-28 15:28N 29°19' W 094°48'0 0.0
2020-Mar-28 12:28N 29°19' W 094°48'0 0.0
2020-Mar-28 11:58N 29°19' W 094°48'0 0.0
2020-Mar-28 11:25N 29°19' W 094°48'0 0.0
2020-Mar-28 08:28N 29°19' W 094°48'0 0.0
2020-Mar-28 06:28N 29°19' W 094°48'0 0.0
2020-Mar-28 05:58N 29°19' W 094°48'0 0.0
2020-Mar-28 02:58N 29°19' W 094°48'0 0.0
2020-Mar-28 02:28N 29°19' W 094°48'0 0.0
2020-Mar-28 01:58N 29°19' W 094°48'0 0.0
2020-Mar-28 00:58N 29°19' W 094°48'0 0.0
2020-Mar-27 22:28N 29°19' W 094°48'0 0.0
2020-Mar-27 21:28N 29°19' W 094°48'0 0.0
2020-Mar-27 16:58N 29°19' W 094°48'0 0.0
2020-Mar-27 16:28N 29°19' W 094°48'0 0.0
2020-Mar-27 15:55N 29°19' W 094°48'0 0.0
2020-Mar-27 14:58N 29°19' W 094°48'0 0.0
2020-Mar-27 13:28N 29°19' W 094°48'0 0.0
2020-Mar-27 12:28N 29°19' W 094°48'0 0.0
2020-Mar-27 11:58N 29°19' W 094°48'0 0.0
2020-Mar-27 10:28N 29°19' W 094°48'0 0.0
2020-Mar-27 09:58N 29°19' W 094°48'0 0.0
2020-Mar-27 07:58N 29°19' W 094°48'0 0.0
2020-Mar-27 05:58N 29°19' W 094°48'0 0.0
2020-Mar-27 03:28N 29°19' W 094°48'0 0.0
2020-Mar-26 21:28N 29°19' W 094°48'0 0.0
2020-Mar-26 20:58N 29°19' W 094°48'0 0.0
2020-Mar-26 17:58N 29°19' W 094°48'0 0.0
2020-Mar-26 17:28N 29°19' W 094°48'0 0.0
2020-Mar-26 14:58N 29°19' W 094°48'0 0.0
2020-Mar-26 13:28N 29°19' W 094°48'0 0.0
2020-Mar-26 10:58N 29°19' W 094°48'0 0.0
2020-Mar-26 09:58N 29°19' W 094°48'0 0.0
2020-Mar-26 09:28N 29°19' W 094°48'0 0.0
2020-Mar-26 07:58N 29°19' W 094°48'0 0.0
2020-Mar-26 07:28N 29°19' W 094°48'0 0.0
2020-Mar-26 06:46N 29°19' W 094°48'0 0.0
2020-Mar-26 06:25N 29°19' W 094°48'0 0.0
2020-Mar-26 05:55N 29°19' W 094°48'0 0.0
2020-Mar-26 05:25N 29°19' W 094°48'0 0.0
2020-Mar-26 04:28N 29°19' W 094°48'0 0.0
2020-Mar-26 03:28N 29°19' W 094°48'0 0.0
2020-Mar-25 22:58N 29°19' W 094°48'0 0.0
2020-Mar-25 20:28N 29°19' W 094°48'0 0.0
2020-Mar-25 15:28N 29°19' W 094°48'1 0.7
2020-Mar-25 13:30N 29°19' W 094°47'2 3.8
2020-Mar-25 13:00N 29°21' W 094°45'20 8.1
2020-Mar-25 10:30N 29°10' W 094°25'15 7.3
2020-Mar-25 08:30N 29°01' W 094°37'4 7.9
2020-Mar-25 08:00N 28°58' W 094°41'20 8.0
2020-Mar-25 05:30N 28°48' W 095°00'12 3.0
2020-Mar-25 01:30N 28°55' W 094°49'6 7.9
2020-Mar-25 00:43N 28°58' W 094°43'2 7.8
2020-Mar-25 00:30N 28°59' W 094°42'9 5.8
2020-Mar-24 23:00N 29°06' W 094°35'0 0.0
2020-Mar-24 19:03N 29°06' W 094°35'0 0.0
2020-Mar-24 17:21N 29°06' W 094°35'0 0.0
2020-Mar-24 13:06N 29°06' W 094°35'0 0.0
2020-Mar-24 12:54N 29°06' W 094°35'0 0.0
2020-Mar-24 09:51N 29°06' W 094°35'0 0.0
2020-Mar-24 08:30N 29°06' W 094°35'0 0.1
2020-Mar-24 07:54N 29°06' W 094°35'0 0.0
2020-Mar-24 07:30N 29°06' W 094°35'0 0.0
2020-Mar-24 05:30N 29°06' W 094°35'0 0.0
2020-Mar-24 04:27N 29°06' W 094°35'0 0.0
2020-Mar-24 01:24N 29°06' W 094°35'0 0.0
2020-Mar-24 00:24N 29°06' W 094°35'0 0.0
2020-Mar-23 23:30N 29°06' W 094°35'  
Track history (hours):
 
Tides and Currents Weather Stations Pressure Air Temp Water Temp Dewpoint Dewpoint Depression Visibility Wind Speed Wind Dir Waves Ship Positions

Enchantment of the Seas (Bahamas)

Last reported at 2020-Apr-02 21:29 UTC. Time now 2020-Apr-02 21:39 UTC.
Position N 29°19' W 094°48'.

Type: Passenger vessel. MMSI: 311733000.

Date/timePositionNaut miles runAvg speedWind from/ knotsBaromVisibWave heightAir tempDewpointWater temp
2020-Apr-02 21:29N 29°19' W 094°48'0 0.0
2020-Apr-02 20:59N 29°19' W 094°48'0 0.0
2020-Apr-02 19:26N 29°19' W 094°48'0 0.0
2020-Apr-02 18:59N 29°19' W 094°48'0 0.0
2020-Apr-02 18:26N 29°19' W 094°48'0 0.0
2020-Apr-02 15:23N 29°19' W 094°48'0 0.0
2020-Apr-02 13:29N 29°19' W 094°48'0 0.0
2020-Apr-02 11:59N 29°19' W 094°48'0 0.0
2020-Apr-02 10:59N 29°19' W 094°48'0 0.0
2020-Apr-02 10:29N 29°19' W 094°48'0 0.0
2020-Apr-02 09:29N 29°19' W 094°48'0 0.0
2020-Apr-02 07:59N 29°19' W 094°48'0 0.0
2020-Apr-02 07:29N 29°19' W 094°48'0 0.0
2020-Apr-02 05:26N 29°19' W 094°48'0 0.0
2020-Apr-02 02:26N 29°19' W 094°48'0 0.0
2020-Apr-02 01:56N 29°19' W 094°48'0 0.0
2020-Apr-01 22:59N 29°19' W 094°48'0 0.0
2020-Apr-01 22:29N 29°19' W 094°48'0 0.0
2020-Apr-01 21:26N 29°19' W 094°48'0 0.0
2020-Apr-01 20:59N 29°19' W 094°48'0 0.0
2020-Apr-01 18:26N 29°19' W 094°48'0 0.0
2020-Apr-01 17:56N 29°19' W 094°48'0 0.0
2020-Apr-01 16:59N 29°19' W 094°48'0 0.0
2020-Apr-01 16:29N 29°19' W 094°48'0 0.0
2020-Apr-01 10:29N 29°19' W 094°48'0 0.0
2020-Apr-01 07:59N 29°19' W 094°48'0 0.0
2020-Apr-01 07:26N 29°18' W 094°48'0 0.0
2020-Mar-31 21:56N 29°19' W 094°48'0 0.0
2020-Mar-31 20:59N 29°19' W 094°48'0 0.0
2020-Mar-31 20:29N 29°19' W 094°48'0 0.0
2020-Mar-31 17:59N 29°19' W 094°48'0 0.0
2020-Mar-31 16:26N 29°19' W 094°48'0 0.0
2020-Mar-31 15:59N 29°19' W 094°48'0 0.0
2020-Mar-31 11:26N 29°19' W 094°48'0 0.0
2020-Mar-31 10:59N 29°19' W 094°48'0 0.0
2020-Mar-31 09:59N 29°19' W 094°48'0 0.0
2020-Mar-31 09:29N 29°19' W 094°48'0 0.0
2020-Mar-31 08:29N 29°19' W 094°48'0 0.0
2020-Mar-31 07:29N 29°19' W 094°48'0 0.0
2020-Mar-31 06:29N 29°19' W 094°48'0 0.0
2020-Mar-31 04:59N 29°19' W 094°48'0 0.0
2020-Mar-31 04:29N 29°19' W 094°48'0 0.0
2020-Mar-31 03:26N 29°19' W 094°48'0 0.0
2020-Mar-31 00:59N 29°19' W 094°48'0 0.0
2020-Mar-30 23:26N 29°19' W 094°48'0 0.0
2020-Mar-30 21:29N 29°19' W 094°48'0 0.0
2020-Mar-30 20:56N 29°19' W 094°48'0 0.0
2020-Mar-30 17:30N 29°19' W 094°48'7 6.7
2020-Mar-30 16:31N 29°20' W 094°41'14 6.9
2020-Mar-30 14:27N 29°12' W 094°27'5 5.7
2020-Mar-30 13:38N 29°08' W 094°26'12 7.6
2020-Mar-30 12:00N 29°01' W 094°37'11 7.5
2020-Mar-30 10:30N 28°54' W 094°48'15 7.4
2020-Mar-30 08:30N 28°46' W 095°02'4 7.1
2020-Mar-30 08:00N 28°44' W 095°06'5 2.6
2020-Mar-30 06:00N 28°43' W 095°11'5 8.8
2020-Mar-30 05:29N 28°45' W 095°07'8 8.7
2020-Mar-30 04:30N 28°49' W 094°59'21 8.5
2020-Mar-30 02:00N 29°01' W 094°38'4 7.6
2020-Mar-30 01:31N 29°04' W 094°35'1 0.4
2020-Mar-29 22:29N 29°05' W 094°36'0 0.0
2020-Mar-29 19:14N 29°05' W 094°36'0 0.0
2020-Mar-29 18:35N 29°05' W 094°36'0 0.0
2020-Mar-29 17:59N 29°05' W 094°36'0 0.0
2020-Mar-29 17:29N 29°05' W 094°36'0 0.0
2020-Mar-29 16:23N 29°05' W 094°36'0 0.0
2020-Mar-29 14:26N 29°05' W 094°36'0 0.0
2020-Mar-29 13:26N 29°05' W 094°36'0 0.1
2020-Mar-29 12:59N 29°05' W 094°36'1 2.2
2020-Mar-29 12:30N 29°04' W 094°36'7 6.6
2020-Mar-29 11:30N 28°59' W 094°41'19 7.7
2020-Mar-29 09:00N 28°48' W 094°60'22 4.0
2020-Mar-29 03:30N 29°01' W 094°39'8 8.0
2020-Mar-29 02:30N 29°05' W 094°32'15 6.0
2020-Mar-28 23:59N 29°19' W 094°38'714.6
2020-Mar-28 23:30N 29°21' W 094°46'3 1.1
2020-Mar-28 20:58N 29°19' W 094°48'0 0.0
2020-Mar-28 19:28N 29°19' W 094°48'0 0.0
2020-Mar-28 15:28N 29°19' W 094°48'0 0.0
2020-Mar-28 12:28N 29°19' W 094°48'0 0.0
2020-Mar-28 11:58N 29°19' W 094°48'0 0.0
2020-Mar-28 11:25N 29°19' W 094°48'0 0.0
2020-Mar-28 08:28N 29°19' W 094°48'0 0.0
2020-Mar-28 06:28N 29°19' W 094°48'0 0.0
2020-Mar-28 05:58N 29°19' W 094°48'0 0.0
2020-Mar-28 02:58N 29°19' W 094°48'0 0.0
2020-Mar-28 02:28N 29°19' W 094°48'0 0.0
2020-Mar-28 01:58N 29°19' W 094°48'0 0.0
2020-Mar-28 00:58N 29°19' W 094°48'0 0.0
2020-Mar-27 22:28N 29°19' W 094°48'0 0.0
2020-Mar-27 21:28N 29°19' W 094°48'0 0.0
2020-Mar-27 16:58N 29°19' W 094°48'0 0.0
2020-Mar-27 16:28N 29°19' W 094°48'0 0.0
2020-Mar-27 15:55N 29°19' W 094°48'0 0.0
2020-Mar-27 14:58N 29°19' W 094°48'0 0.0
2020-Mar-27 13:28N 29°19' W 094°48'0 0.0
2020-Mar-27 12:28N 29°19' W 094°48'0 0.0
2020-Mar-27 11:58N 29°19' W 094°48'0 0.0
2020-Mar-27 10:28N 29°19' W 094°48'0 0.0
2020-Mar-27 09:58N 29°19' W 094°48'0 0.0
2020-Mar-27 07:58N 29°19' W 094°48'0 0.0
2020-Mar-27 05:58N 29°19' W 094°48'0 0.0
2020-Mar-27 03:28N 29°19' W 094°48'0 0.0
2020-Mar-26 21:28N 29°19' W 094°48'0 0.0
2020-Mar-26 20:58N 29°19' W 094°48'0 0.0
2020-Mar-26 17:58N 29°19' W 094°48'0 0.0
2020-Mar-26 17:28N 29°19' W 094°48'0 0.0
2020-Mar-26 14:58N 29°19' W 094°48'0 0.0
2020-Mar-26 13:28N 29°19' W 094°48'0 0.0
2020-Mar-26 10:58N 29°19' W 094°48'0 0.0
2020-Mar-26 09:58N 29°19' W 094°48'0 0.0
2020-Mar-26 09:28N 29°19' W 094°48'0 0.0
2020-Mar-26 07:58N 29°19' W 094°48'0 0.0
2020-Mar-26 07:28N 29°19' W 094°48'0 0.0
2020-Mar-26 06:46N 29°19' W 094°48'0 0.0
2020-Mar-26 06:25N 29°19' W 094°48'0 0.0
2020-Mar-26 05:55N 29°19' W 094°48'0 0.0
2020-Mar-26 05:25N 29°19' W 094°48'0 0.0
2020-Mar-26 04:28N 29°19' W 094°48'0 0.0
2020-Mar-26 03:28N 29°19' W 094°48'0 0.0
2020-Mar-25 22:58N 29°19' W 094°48'0 0.0
2020-Mar-25 20:28N 29°19' W 094°48'0 0.0
2020-Mar-25 15:28N 29°19' W 094°48'1 0.7
2020-Mar-25 13:30N 29°19' W 094°47'2 3.8
2020-Mar-25 13:00N 29°21' W 094°45'20 8.1
2020-Mar-25 10:30N 29°10' W 094°25'15 7.3
2020-Mar-25 08:30N 29°01' W 094°37'4 7.9
2020-Mar-25 08:00N 28°58' W 094°41'20 8.0
2020-Mar-25 05:30N 28°48' W 095°00'12 3.0
2020-Mar-25 01:30N 28°55' W 094°49'6 7.9
2020-Mar-25 00:43N 28°58' W 094°43'2 7.8
2020-Mar-25 00:30N 28°59' W 094°42'9 5.8
2020-Mar-24 23:00N 29°06' W 094°35'0 0.0
2020-Mar-24 19:03N 29°06' W 094°35'0 0.0
2020-Mar-24 17:21N 29°06' W 094°35'0 0.0
2020-Mar-24 13:06N 29°06' W 094°35'0 0.0
2020-Mar-24 12:54N 29°06' W 094°35'0 0.0
2020-Mar-24 09:51N 29°06' W 094°35'0 0.0
2020-Mar-24 08:30N 29°06' W 094°35'0 0.1
2020-Mar-24 07:54N 29°06' W 094°35'0 0.0
2020-Mar-24 07:30N 29°06' W 094°35'0 0.0
2020-Mar-24 05:30N 29°06' W 094°35'0 0.0
2020-Mar-24 04:27N 29°06' W 094°35'0 0.0
2020-Mar-24 01:24N 29°06' W 094°35'0 0.0
2020-Mar-24 00:24N 29°06' W 094°35'0 0.0
2020-Mar-23 23:30N 29°06' W 094°35'  

Dump ship's entire track history